Time;durP1;ratioP1;P1;durP2;ratioP2;P2;SDS_P1;SDS_P2;PMS_P1;PMS_P2;Temp;Humidity;BMP_temperature;BMP_pressure;BME280_temperature;BME280_humidity;BME280_pressure;Samples;Min_cycle;Max_cycle;Signal;HPM_P1;HPM_P2
2024/03/27 00:00:43;;;;;;;8.10;3.28;;;;;;;9.82;59.80;95786.81;4943709;28;104315;-69
2024/03/27 00:03:11;;;;;;;6.15;3.20;;;;;;;9.74;60.16;95780.84;4971599;28;103207;-69
2024/03/27 00:05:38;;;;;;;7.60;2.80;;;;;;;9.90;59.56;95797.00;4964854;28;106422;-69
2024/03/27 00:08:06;;;;;;;7.88;3.55;;;;;;;9.91;60.34;95819.75;4972434;27;103014;-69
2024/03/27 00:10:32;;;;;;;7.40;3.30;;;;;;;9.99;59.69;95792.94;4957787;28;103335;-69
2024/03/27 00:12:58;;;;;;;10.23;3.35;;;;;;;10.01;60.19;95779.47;4951266;28;105320;-69
2024/03/27 00:15:24;;;;;;;9.30;3.72;;;;;;;9.60;61.62;95772.38;4977348;28;103487;-69
2024/03/27 00:17:49;;;;;;;12.60;3.80;;;;;;;9.44;62.71;95763.31;4956524;28;103341;-69
2024/03/27 00:20:15;;;;;;;6.00;3.55;;;;;;;9.59;61.57;95760.22;4972941;28;102981;-69
2024/03/27 00:22:43;;;;;;;14.80;4.07;;;;;;;9.81;61.03;95775.41;4941264;27;103130;-69
2024/03/27 00:25:09;;;;;;;8.80;3.60;;;;;;;9.60;61.58;95766.28;4969029;28;105476;-69
2024/03/27 00:27:34;;;;;;;8.20;3.80;;;;;;;9.35;62.63;95767.38;4962381;28;102742;-69
2024/03/27 00:30:00;;;;;;;9.48;3.40;;;;;;;9.28;63.09;95761.41;4970496;28;102915;-69
2024/03/27 00:32:26;;;;;;;9.05;3.70;;;;;;;9.36;62.46;95761.03;4959904;28;103119;-70
2024/03/27 00:34:52;;;;;;;7.45;3.72;;;;;;;9.59;61.30;95754.13;5008736;27;103303;-69
2024/03/27 00:37:17;;;;;;;12.50;3.55;;;;;;;9.33;62.49;95750.13;4977053;28;102809;-69
2024/03/27 00:39:43;;;;;;;12.73;3.50;;;;;;;9.27;63.55;95743.97;4972907;28;103611;-69
2024/03/27 00:42:08;;;;;;;8.05;3.35;;;;;;;8.99;64.46;95724.38;4936522;28;103288;-69
2024/03/27 00:44:34;;;;;;;12.38;3.20;;;;;;;9.17;62.87;95712.06;4967971;27;103217;-70
2024/03/27 00:47:00;;;;;;;9.50;3.70;;;;;;;9.20;63.03;95703.69;4942890;28;102655;-69
2024/03/27 00:49:26;;;;;;;15.38;3.33;;;;;;;9.24;62.45;95702.97;4970141;28;102863;-69
2024/03/27 00:51:52;;;;;;;6.97;3.13;;;;;;;9.37;61.71;95696.63;4951365;28;105352;-69
2024/03/27 00:54:21;;;;;;;5.15;2.78;;;;;;;9.65;60.83;95702.97;4950727;28;105753;-69
2024/03/27 00:56:46;;;;;;;7.05;2.92;;;;;;;9.77;60.84;95709.03;4957204;28;102943;-69
2024/03/27 00:59:12;;;;;;;8.32;2.67;;;;;;;9.88;60.81;95712.66;4971105;27;103122;-69
2024/03/27 01:01:38;;;;;;;6.95;3.08;;;;;;;9.50;62.52;95697.38;4974427;28;103409;-69
2024/03/27 01:04:04;;;;;;;7.38;3.35;;;;;;;9.41;62.53;95695.13;4938020;28;103990;-69
2024/03/27 01:06:32;;;;;;;6.75;2.80;;;;;;;9.55;61.79;95694.84;4944629;28;102908;-69
2024/03/27 01:08:57;;;;;;;5.38;2.65;;;;;;;9.70;61.31;95689.06;4951668;28;103072;-69
2024/03/27 01:11:23;;;;;;;9.65;2.88;;;;;;;9.50;62.56;95692.09;4936418;28;105500;-69
2024/03/27 01:13:49;;;;;;;7.25;3.40;;;;;;;9.10;63.63;95683.97;4934875;28;103757;-70
2024/03/27 01:16:15;;;;;;;7.32;3.45;;;;;;;8.81;64.32;95671.72;4947259;28;103046;-70
2024/03/27 01:18:45;;;;;;;9.63;3.83;;;;;;;8.82;64.54;95666.19;4971169;28;103224;-70
2024/03/27 01:21:11;;;;;;;10.43;3.58;;;;;;;8.68;64.75;95655.06;4955046;28;103918;-70
2024/03/27 01:23:37;;;;;;;6.18;3.13;;;;;;;8.56;65.48;95651.66;4952049;28;106006;-70
2024/03/27 01:26:03;;;;;;;7.55;3.28;;;;;;;8.53;65.22;95652.09;4971421;28;104456;-70
2024/03/27 01:28:29;;;;;;;9.77;3.78;;;;;;;8.53;65.40;95647.63;4964901;28;102748;-69
2024/03/27 01:30:55;;;;;;;6.80;3.25;;;;;;;8.45;65.21;95635.59;4951810;28;103289;-70
2024/03/27 01:33:20;;;;;;;5.32;2.72;;;;;;;8.65;64.57;95631.81;4952756;28;103421;-70
2024/03/27 01:35:50;;;;;;;7.38;2.50;;;;;;;8.95;63.50;95644.03;4972662;28;102722;-70
2024/03/27 01:38:15;;;;;;;4.68;2.33;;;;;;;9.09;62.72;95634.81;4956100;28;102790;-72
2024/03/27 01:40:41;;;;;;;7.03;2.75;;;;;;;9.03;63.29;95648.94;4945860;28;106169;-73
2024/03/27 01:43:09;;;;;;;5.90;3.00;;;;;;;8.96;63.60;95656.19;4932227;28;103311;-72
2024/03/27 01:45:36;;;;;;;6.45;3.00;;;;;;;8.10;66.95;95651.38;4962721;28;102822;-72
2024/03/27 01:48:02;;;;;;;5.50;3.10;;;;;;;7.97;67.09;95644.47;4960015;28;102876;-73
2024/03/27 01:50:29;;;;;;;5.95;2.88;;;;;;;7.89;67.87;95648.22;4946920;28;106555;-72
2024/03/27 01:52:57;;;;;;;6.47;3.25;;;;;;;8.01;67.34;95640.34;4955735;28;105327;-72
2024/03/27 01:55:26;;;;;;;3.40;2.25;;;;;;;8.29;65.95;95644.97;4967311;28;102753;-72
2024/03/27 01:57:52;;;;;;;4.00;2.50;;;;;;;8.55;64.59;95639.50;4969813;28;103445;-72
2024/03/27 02:00:19;;;;;;;4.13;2.10;;;;;;;8.73;64.23;95644.63;4952126;27;105380;-73
2024/03/27 02:02:46;;;;;;;5.93;3.00;;;;;;;8.60;64.13;95648.31;4967418;28;103630;-73
2024/03/27 02:05:12;;;;;;;6.85;3.33;;;;;;;8.46;64.95;95649.56;4969528;28;102963;-73
2024/03/27 02:07:44;;;;;;;6.10;2.97;;;;;;;8.35;64.91;95648.53;4962291;27;102814;-73
2024/03/27 02:10:15;;;;;;;9.05;3.05;;;;;;;8.59;64.10;95646.72;4953013;28;106210;-72
2024/03/27 02:12:41;;;;;;;5.05;2.50;;;;;;;8.69;63.83;95648.78;4956027;28;103421;-73
2024/03/27 02:15:08;;;;;;;4.10;2.22;;;;;;;8.68;63.79;95652.44;4985643;27;103000;-73
2024/03/27 02:17:34;;;;;;;6.57;2.78;;;;;;;8.66;64.00;95657.16;4956971;28;102842;-72
2024/03/27 02:19:59;;;;;;;8.30;2.78;;;;;;;8.42;65.35;95662.41;4968787;28;103398;-72
2024/03/27 02:22:28;;;;;;;4.32;2.33;;;;;;;8.50;64.91;95666.53;4972457;28;107858;-73
2024/03/27 02:25:20;;;;;;;5.28;2.65;;;;;;;8.33;66.37;95669.03;4959918;28;103351;-72
2024/03/27 02:27:46;;;;;;;7.40;3.22;;;;;;;7.68;68.27;95660.09;4974536;27;103095;-73
2024/03/27 02:30:12;;;;;;;5.30;2.53;;;;;;;7.81;67.74;95659.09;4969599;28;104703;-73
2024/03/27 02:32:38;;;;;;;5.13;2.35;;;;;;;8.06;66.82;95653.66;4982988;28;105322;-73
2024/03/27 02:35:04;;;;;;;8.55;2.63;;;;;;;8.10;66.49;95656.66;4957792;28;102714;-73
2024/03/27 02:37:30;;;;;;;4.65;2.20;;;;;;;8.16;65.94;95652.28;4955123;28;102843;-72
2024/03/27 02:39:55;;;;;;;5.85;2.65;;;;;;;8.18;66.19;95647.59;4966945;28;105388;-72
2024/03/27 02:42:21;;;;;;;5.47;2.63;;;;;;;7.89;67.24;95639.53;4979822;27;104670;-72
2024/03/27 02:44:47;;;;;;;5.30;2.40;;;;;;;7.99;66.42;95642.44;4967836;28;102898;-72
2024/03/27 02:47:13;;;;;;;5.22;2.53;;;;;;;8.05;66.25;95646.78;4947243;27;103404;-72
2024/03/27 02:49:43;;;;;;;5.25;2.67;;;;;;;8.20;65.64;95640.25;4969772;28;103390;-72
2024/03/27 02:52:11;;;;;;;6.88;2.92;;;;;;;8.03;66.51;95627.75;4979647;28;105536;-71
2024/03/27 02:54:37;;;;;;;5.30;2.60;;;;;;;8.07;66.30;95628.91;4942688;28;102979;-71
2024/03/27 02:57:02;;;;;;;6.25;3.10;;;;;;;8.15;66.01;95625.13;4962319;28;103212;-72
2024/03/27 02:59:28;;;;;;;6.57;2.70;;;;;;;8.24;65.48;95625.56;4970663;28;103452;-72
2024/03/27 03:01:54;;;;;;;9.88;4.25;;;;;;;8.04;66.88;95613.53;4970202;28;103714;-72
2024/03/27 03:04:20;;;;;;;10.65;3.83;;;;;;;7.89;67.03;95610.56;4968623;27;102873;-72
2024/03/27 03:06:46;;;;;;;7.40;3.53;;;;;;;8.02;66.78;95610.34;4975414;28;102823;-72
2024/03/27 03:09:14;;;;;;;6.25;2.88;;;;;;;8.07;66.48;95613.09;4923636;28;104524;-72
2024/03/27 03:11:39;;;;;;;6.95;3.75;;;;;;;7.77;67.56;95600.78;4921653;28;106173;-72
2024/03/27 03:14:06;;;;;;;11.48;4.35;;;;;;;6.95;70.88;95602.09;4942890;28;102838;-72
2024/03/27 03:16:32;;;;;;;8.23;4.40;;;;;;;6.83;71.50;95595.97;4967898;28;102867;-72
2024/03/27 03:19:02;;;;;;;9.32;4.10;;;;;;;6.94;71.13;95594.44;4955727;28;103669;-72
2024/03/27 03:21:30;;;;;;;13.98;4.80;;;;;;;6.54;72.62;95584.38;4948100;28;105553;-73
2024/03/27 03:23:56;;;;;;;12.27;5.00;;;;;;;6.40;73.52;95578.47;4938415;28;103004;-73
2024/03/27 03:26:21;;;;;;;16.95;4.38;;;;;;;6.45;73.39;95576.78;4963744;28;103058;-73
2024/03/27 03:28:47;;;;;;;13.65;4.68;;;;;;;6.55;72.59;95575.44;4946493;28;103731;-73
2024/03/27 03:31:17;;;;;;;9.55;4.55;;;;;;;6.41;72.98;95565.09;4962101;28;107394;-73
2024/03/27 03:33:43;;;;;;;7.22;4.50;;;;;;;6.36;73.05;95551.78;4953663;28;102770;-73
2024/03/27 03:36:08;;;;;;;11.23;4.75;;;;;;;6.51;72.76;95553.25;4968769;27;103590;-70
2024/03/27 03:38:34;;;;;;;8.48;3.58;;;;;;;6.85;71.37;95553.66;4949362;28;105343;-70
2024/03/27 03:41:03;;;;;;;8.77;4.40;;;;;;;6.99;70.66;95549.84;4950124;28;105262;-70
2024/03/27 03:43:29;;;;;;;10.43;3.95;;;;;;;6.99;70.33;95560.38;4984778;28;102833;-70
2024/03/27 03:45:55;;;;;;;8.68;3.75;;;;;;;7.02;69.85;95553.84;4954997;28;104929;-70
2024/03/27 03:48:23;;;;;;;14.07;4.75;;;;;;;6.89;70.54;95549.56;4952824;28;105285;-70
2024/03/27 03:50:49;;;;;;;13.52;4.45;;;;;;;6.83;70.85;95530.22;4968400;28;106362;-70
2024/03/27 03:53:15;;;;;;;7.53;3.45;;;;;;;6.97;70.54;95538.75;4966041;28;109498;-70
2024/03/27 03:55:41;;;;;;;7.80;3.80;;;;;;;7.10;69.38;95545.63;4970708;28;102796;-69
2024/03/27 03:58:11;;;;;;;10.52;3.67;;;;;;;7.17;69.03;95558.72;4961664;28;105335;-70
2024/03/27 04:00:37;;;;;;;8.48;4.43;;;;;;;6.92;70.34;95570.19;4981328;28;103134;-70
2024/03/27 04:03:03;;;;;;;12.02;4.45;;;;;;;6.70;71.41;95573.25;4952491;28;103131;-70
2024/03/27 04:05:28;;;;;;;7.00;3.03;;;;;;;6.73;71.71;95582.53;4996140;27;103852;-70
2024/03/27 04:07:54;;;;;;;8.27;3.80;;;;;;;6.92;70.94;95588.59;4948490;28;104596;-70
2024/03/27 04:10:22;;;;;;;7.30;3.65;;;;;;;6.44;72.39;95580.41;4967893;27;103621;-70
2024/03/27 04:12:48;;;;;;;11.98;4.70;;;;;;;6.40;72.63;95584.50;4969344;28;103169;-70
2024/03/27 04:15:14;;;;;;;7.82;3.53;;;;;;;6.55;72.23;95591.22;4966021;28;102725;-70
2024/03/27 04:17:40;;;;;;;10.90;4.97;;;;;;;5.96;73.99;95578.41;4990114;28;104144;-70
2024/03/27 04:20:10;;;;;;;10.48;4.03;;;;;;;5.98;74.53;95564.09;4968217;28;103524;-70
2024/03/27 04:22:36;;;;;;;11.70;4.55;;;;;;;5.98;74.77;95561.44;4970374;28;103793;-71
2024/03/27 04:25:05;;;;;;;10.38;5.05;;;;;;;6.07;74.95;95548.84;4967007;28;103314;-71
2024/03/27 04:27:31;;;;;;;10.20;4.80;;;;;;;6.18;74.79;95554.41;4970035;28;103708;-70
2024/03/27 04:29:57;;;;;;;9.60;4.85;;;;;;;6.31;74.08;95556.91;4945268;28;106126;-71
2024/03/27 04:32:26;;;;;;;7.43;3.55;;;;;;;6.53;72.79;95559.09;4964870;28;103113;-68
2024/03/27 04:34:52;;;;;;;9.98;3.95;;;;;;;6.65;71.69;95559.97;4956110;28;102847;-68
2024/03/27 04:37:17;;;;;;;9.23;4.03;;;;;;;6.57;71.94;95568.16;4970782;28;103495;-69
2024/03/27 04:39:43;;;;;;;12.05;4.60;;;;;;;6.45;71.89;95570.72;4957376;28;104560;-69
2024/03/27 04:42:10;;;;;;;9.07;4.82;;;;;;;5.84;74.81;95570.44;4972196;28;102814;-69
2024/03/27 04:44:35;;;;;;;12.10;4.47;;;;;;;5.74;75.76;95565.69;4985580;28;102811;-69
2024/03/27 04:47:05;;;;;;;7.15;3.78;;;;;;;5.76;75.67;95552.34;4951686;28;104920;-68
2024/03/27 04:49:31;;;;;;;9.85;4.32;;;;;;;5.92;74.89;95548.34;4987622;28;105272;-69
2024/03/27 04:51:56;;;;;;;8.07;4.45;;;;;;;5.85;74.49;95548.41;4941904;28;103846;-69
2024/03/27 04:54:22;;;;;;;6.57;3.67;;;;;;;6.07;73.49;95532.28;4955450;28;102802;-68
2024/03/27 04:56:48;;;;;;;8.07;3.13;;;;;;;6.27;72.56;95539.97;4964452;28;103304;-69
2024/03/27 04:59:16;;;;;;;8.18;3.47;;;;;;;6.39;72.09;95529.53;4969432;28;103890;-69
2024/03/27 05:01:42;;;;;;;11.77;4.07;;;;;;;6.46;71.09;95523.16;4954690;28;102780;-69
2024/03/27 05:04:07;;;;;;;8.15;3.47;;;;;;;6.33;72.01;95523.31;4958916;28;103102;-69
2024/03/27 05:06:39;;;;;;;7.97;3.47;;;;;;;6.39;71.67;95519.84;4966862;28;103169;-69
2024/03/27 05:09:09;;;;;;;10.98;3.80;;;;;;;6.35;72.04;95513.38;4968736;28;103293;-69
2024/03/27 05:11:41;;;;;;;12.68;3.67;;;;;;;6.36;71.99;95514.19;4941667;28;103228;-69
2024/03/27 05:14:08;;;;;;;6.88;2.95;;;;;;;6.37;71.38;95524.50;4955482;28;102764;-69
2024/03/27 05:16:34;;;;;;;6.35;3.17;;;;;;;6.43;71.21;95530.69;4923332;28;106547;-69
2024/03/27 05:19:00;;;;;;;11.52;4.40;;;;;;;5.66;74.70;95526.56;4955142;28;102680;-70
2024/03/27 05:21:27;;;;;;;9.48;4.18;;;;;;;5.87;74.33;95521.94;4958357;28;102757;-69
2024/03/27 05:23:55;;;;;;;10.98;3.88;;;;;;;6.00;73.21;95511.34;4966105;28;103012;-69
2024/03/27 05:26:20;;;;;;;13.85;4.65;;;;;;;5.72;74.94;95504.69;4954016;28;106672;-69
2024/03/27 05:28:48;;;;;;;11.45;5.25;;;;;;;5.66;75.08;95510.81;4971678;28;103601;-69
2024/03/27 05:31:14;;;;;;;9.63;4.35;;;;;;;5.99;74.01;95509.72;4962458;28;102896;-69
2024/03/27 05:33:40;;;;;;;13.35;5.10;;;;;;;5.63;75.34;95513.84;4958832;28;102988;-69
2024/03/27 05:36:07;;;;;;;10.80;4.32;;;;;;;5.62;76.32;95512.25;4938014;28;103521;-69
2024/03/27 05:38:32;;;;;;;8.65;5.07;;;;;;;5.73;75.56;95501.03;4968195;28;103224;-70
2024/03/27 05:40:58;;;;;;;7.50;3.92;;;;;;;6.02;74.09;95504.03;4950367;28;102793;-68
2024/03/27 05:43:24;;;;;;;10.25;4.03;;;;;;;6.21;73.33;95504.03;4956777;28;102946;-68
2024/03/27 05:45:52;;;;;;;8.77;3.72;;;;;;;6.27;72.70;95511.84;4977438;28;103215;-76
2024/03/27 05:48:18;;;;;;;13.00;4.78;;;;;;;6.08;73.44;95510.25;4964030;28;103515;-76
2024/03/27 05:50:44;;;;;;;16.77;4.68;;;;;;;6.02;74.50;95519.78;4985085;28;102816;-74
2024/03/27 05:53:12;;;;;;;11.85;4.50;;;;;;;6.20;74.07;95526.09;4967979;28;102704;-76
2024/03/27 05:55:38;;;;;;;6.82;3.58;;;;;;;6.33;73.27;95525.97;4958169;28;104129;-76
2024/03/27 05:58:06;;;;;;;10.65;4.10;;;;;;;6.49;72.23;95524.56;4952450;28;106204;-76
2024/03/27 06:00:33;;;;;;;8.70;4.10;;;;;;;6.35;72.90;95508.13;4971928;28;102864;-76
2024/03/27 06:02:58;;;;;;;19.15;5.70;;;;;;;5.87;75.18;95495.66;4972832;28;103044;-75
2024/03/27 06:05:24;;;;;;;12.27;5.70;;;;;;;5.60;77.02;95490.66;4971980;28;103307;-74
2024/03/27 06:07:50;;;;;;;15.02;5.78;;;;;;;5.52;77.72;95477.81;4974083;28;102843;-84
2024/03/27 06:10:16;;;;;;;14.13;5.68;;;;;;;5.48;77.87;95478.22;4977320;27;102743;-76
2024/03/27 06:12:47;;;;;;;13.85;4.97;;;;;;;5.94;76.27;95470.16;4972008;28;102876;-79
2024/03/27 06:15:13;;;;;;;10.50;5.57;;;;;;;6.09;75.64;95477.69;4961855;28;105369;-74
2024/03/27 06:17:39;;;;;;;14.05;5.25;;;;;;;6.32;74.84;95477.03;4939672;28;103335;-75
2024/03/27 06:20:07;;;;;;;12.25;4.22;;;;;;;6.58;72.97;95490.88;4946534;28;103175;-75
2024/03/27 06:22:33;;;;;;;13.75;5.57;;;;;;;6.65;73.82;95502.13;4940067;28;103248;-76
2024/03/27 06:24:59;;;;;;;16.52;5.68;;;;;;;6.73;73.04;95514.94;4965502;28;103604;-75
2024/03/27 06:27:27;;;;;;;21.50;8.57;;;;;;;6.53;72.63;95503.91;4968264;28;109883;-75
2024/03/27 06:29:53;;;;;;;12.05;6.13;;;;;;;6.34;74.00;95482.88;4956245;28;102745;-76
2024/03/27 06:32:21;;;;;;;18.10;6.00;;;;;;;6.37;74.39;95479.81;4934183;28;102808;-76
2024/03/27 06:34:46;;;;;;;14.48;5.80;;;;;;;6.49;74.13;95476.44;4957247;28;103838;-74
2024/03/27 06:37:12;;;;;;;13.35;5.32;;;;;;;6.67;73.60;95479.03;4967101;28;103198;-74
2024/03/27 06:39:38;;;;;;;10.88;5.18;;;;;;;6.93;72.80;95477.06;4969926;28;103521;-74
2024/03/27 06:42:03;;;;;;;12.15;5.22;;;;;;;7.09;72.39;95480.91;4954644;28;103373;-75
2024/03/27 06:44:29;;;;;;;7.85;4.15;;;;;;;7.28;71.66;95482.44;4958489;28;103176;-75
2024/03/27 06:46:55;;;;;;;14.73;6.65;;;;;;;7.20;72.20;95480.09;4938042;28;105544;-74
2024/03/27 06:49:32;;;;;;;12.82;5.72;;;;;;;7.38;71.61;95484.50;4954490;28;104446;-76
2024/03/27 06:52:00;;;;;;;16.23;6.93;;;;;;;7.17;72.55;95472.66;4952188;27;102833;-75
2024/03/27 06:54:26;;;;;;;12.85;5.63;;;;;;;7.32;71.78;95469.59;4962324;28;108990;-75
2024/03/27 06:56:52;;;;;;;16.05;6.22;;;;;;;7.44;71.82;95470.44;4947648;28;104240;-75
2024/03/27 06:59:17;;;;;;;10.18;5.63;;;;;;;7.56;70.79;95480.97;4966830;28;104205;-75
2024/03/27 07:01:43;;;;;;;11.75;5.57;;;;;;;7.67;70.89;95484.63;4971280;28;102821;-74
2024/03/27 07:04:10;;;;;;;13.98;4.97;;;;;;;7.75;70.90;95489.56;4943445;28;103715;-75
2024/03/27 07:06:36;;;;;;;13.27;5.53;;;;;;;7.67;71.62;95482.00;4953244;28;105633;-75
2024/03/27 07:09:03;;;;;;;8.35;4.43;;;;;;;7.72;71.92;95470.78;4970351;28;102687;-78
2024/03/27 07:11:30;;;;;;;15.10;5.13;;;;;;;7.84;71.50;95470.78;4950646;28;102739;-76
2024/03/27 07:13:56;;;;;;;11.40;5.97;;;;;;;7.75;71.38;95462.41;4947952;28;103585;-75
2024/03/27 07:16:22;;;;;;;15.02;4.72;;;;;;;7.90;70.94;95467.22;4947448;28;103170;-75
2024/03/27 07:18:47;;;;;;;9.18;5.00;;;;;;;8.11;70.74;95479.81;4937554;28;102993;-75
2024/03/27 07:21:13;;;;;;;9.48;4.57;;;;;;;8.26;70.38;95475.88;4945689;28;102663;-74
2024/03/27 07:23:39;;;;;;;14.43;5.47;;;;;;;8.37;69.70;95469.78;4967448;28;103174;-75
2024/03/27 07:26:06;;;;;;;9.80;4.93;;;;;;;8.52;69.75;95471.16;4948674;28;103554;-76
2024/03/27 07:28:32;;;;;;;18.83;5.40;;;;;;;8.42;70.32;95488.34;4946098;28;102857;-74
2024/03/27 07:30:58;;;;;;;9.88;5.35;;;;;;;8.56;69.82;95483.63;4950331;28;102749;-73
2024/03/27 07:33:25;;;;;;;11.50;6.45;;;;;;;8.63;69.16;95480.84;4931292;28;105415;-74
2024/03/27 07:35:51;;;;;;;10.77;5.55;;;;;;;8.75;68.95;95480.81;4957897;28;103442;-73
2024/03/27 07:38:17;;;;;;;14.15;7.35;;;;;;;8.84;68.68;95489.94;4934970;28;103187;-72
2024/03/27 07:40:43;;;;;;;16.70;7.68;;;;;;;8.84;67.91;95487.31;4952298;28;103008;-69
2024/03/27 07:43:11;;;;;;;14.35;6.80;;;;;;;9.00;68.03;95492.88;4949917;28;105785;-73
2024/03/27 07:45:37;;;;;;;10.63;5.90;;;;;;;9.08;67.95;95489.88;4956573;28;105285;-73
2024/03/27 07:48:08;;;;;;;14.55;4.97;;;;;;;9.37;67.22;95490.59;4948737;28;102834;-73
2024/03/27 07:50:35;;;;;;;10.68;4.93;;;;;;;9.58;66.24;95489.09;4951420;28;103361;-72
2024/03/27 07:53:01;;;;;;;24.25;6.85;;;;;;;9.75;65.83;95483.00;4924949;28;103320;-71
2024/03/27 07:55:27;;;;;;;13.20;5.05;;;;;;;10.02;65.51;95487.59;4939379;28;103186;-73
2024/03/27 07:57:55;;;;;;;20.83;5.50;;;;;;;9.93;64.75;95505.72;4971149;28;102853;-73
2024/03/27 08:00:21;;;;;;;15.25;6.05;;;;;;;10.32;63.03;95502.28;4938175;28;103189;-75
2024/03/27 08:02:47;;;;;;;10.70;5.28;;;;;;;10.76;61.45;95499.69;4941114;28;105336;-73
2024/03/27 08:05:13;;;;;;;10.32;4.70;;;;;;;11.41;60.39;95492.63;4959349;28;103711;-73
2024/03/27 08:07:39;;;;;;;9.25;4.60;;;;;;;10.93;60.76;95489.00;4973626;28;102886;-76
2024/03/27 08:10:06;;;;;;;12.93;4.70;;;;;;;11.32;60.39;95478.25;4959897;28;102779;-78
2024/03/27 08:12:31;;;;;;;13.82;4.60;;;;;;;11.59;60.33;95482.69;4971003;28;103281;-76
2024/03/27 08:14:57;;;;;;;13.68;4.50;;;;;;;10.98;61.38;95483.75;4931342;28;103923;-77
2024/03/27 08:17:23;;;;;;;12.20;4.13;;;;;;;11.36;62.04;95474.03;4951328;27;102835;-76
2024/03/27 08:19:49;;;;;;;9.52;4.60;;;;;;;11.47;60.46;95463.53;4957659;28;103615;-74
2024/03/27 08:22:15;;;;;;;15.10;4.22;;;;;;;12.11;59.79;95460.78;4970849;27;103366;-77
2024/03/27 08:24:41;;;;;;;8.75;4.45;;;;;;;11.48;60.85;95471.22;4944775;28;103983;-73
2024/03/27 08:27:07;;;;;;;16.73;4.80;;;;;;;12.13;59.53;95478.31;4966401;28;102883;-71
2024/03/27 08:29:33;;;;;;;13.20;4.07;;;;;;;12.66;58.52;95479.06;4974859;28;102836;-73
2024/03/27 08:32:01;;;;;;;9.43;3.85;;;;;;;12.18;60.33;95478.34;4942505;28;103324;-76
2024/03/27 08:34:27;;;;;;;11.32;4.30;;;;;;;11.76;61.04;95478.06;4972929;28;107914;-71
2024/03/27 08:36:56;;;;;;;12.02;4.07;;;;;;;11.78;60.76;95473.28;4983216;27;102895;-74
2024/03/27 08:39:22;;;;;;;12.52;4.70;;;;;;;11.96;59.52;95473.97;4958662;28;103071;-73
2024/03/27 08:41:50;;;;;;;10.35;4.00;;;;;;;12.30;59.26;95473.63;4974478;28;103290;-74
2024/03/27 08:44:16;;;;;;;12.05;4.30;;;;;;;12.55;58.38;95482.75;4943165;27;106444;-71
2024/03/27 08:46:42;;;;;;;8.93;3.97;;;;;;;12.01;58.83;95489.13;4977297;28;102710;-72
2024/03/27 08:49:15;;;;;;;11.52;4.07;;;;;;;12.74;57.51;95486.53;4938347;28;103016;-71
2024/03/27 08:51:42;;;;;;;22.67;5.55;;;;;;;12.88;57.90;95489.50;4968182;28;105450;-72
2024/03/27 08:54:10;;;;;;;11.70;4.82;;;;;;;13.21;57.69;95491.97;4951140;28;105202;-71
2024/03/27 08:56:38;;;;;;;10.95;4.07;;;;;;;13.98;55.56;95485.88;4972434;27;102875;-73
2024/03/27 08:59:06;;;;;;;13.93;4.40;;;;;;;14.21;54.32;95484.50;4927943;28;102770;-73
2024/03/27 09:01:32;;;;;;;9.50;4.38;;;;;;;14.34;53.85;95486.59;4976620;28;103360;-73
2024/03/27 09:03:57;;;;;;;9.85;3.97;;;;;;;14.48;53.26;95480.72;4945700;28;103748;-70
2024/03/27 09:06:25;;;;;;;6.32;3.63;;;;;;;14.48;53.27;95491.34;4952219;28;102781;-71
2024/03/27 09:08:51;;;;;;;8.23;4.55;;;;;;;14.59;52.43;95490.22;4990029;27;102878;-72
2024/03/27 09:11:16;;;;;;;14.18;4.80;;;;;;;14.45;54.38;95505.19;4968857;28;103155;-71
2024/03/27 09:13:42;;;;;;;10.20;4.18;;;;;;;14.66;53.42;95495.28;4957088;28;103308;-71
2024/03/27 09:16:08;;;;;;;9.88;4.72;;;;;;;14.95;51.53;95508.75;4955852;28;103079;-72
2024/03/27 09:18:34;;;;;;;14.05;4.50;;;;;;;15.38;49.41;95511.72;4953417;28;102825;-71
2024/03/27 09:21:01;;;;;;;8.25;4.35;;;;;;;14.59;52.17;95515.00;4969633;28;103897;-72
2024/03/27 09:23:29;;;;;;;22.30;4.40;;;;;;;14.82;50.77;95517.34;4949978;28;103142;-71
2024/03/27 09:25:59;;;;;;;11.85;4.38;;;;;;;14.86;51.93;95521.06;4959473;28;103288;-72
2024/03/27 09:28:26;;;;;;;9.80;4.63;;;;;;;14.68;51.17;95507.28;4971634;28;103165;-70
2024/03/27 09:30:52;;;;;;;8.68;4.55;;;;;;;15.42;50.16;95518.09;4954139;28;106286;-71
2024/03/27 09:33:18;;;;;;;10.80;4.45;;;;;;;15.78;49.25;95514.34;4951015;28;103160;-73
2024/03/27 09:35:46;;;;;;;11.63;4.53;;;;;;;15.13;50.29;95517.19;4948980;28;102810;-75
2024/03/27 09:38:11;;;;;;;7.05;4.13;;;;;;;15.29;50.37;95513.38;4954620;28;103173;-73
2024/03/27 09:40:44;;;;;;;11.32;4.60;;;;;;;15.26;49.42;95537.91;4958661;28;105248;-73
2024/03/27 09:43:14;;;;;;;14.82;4.93;;;;;;;14.78;49.51;95545.59;4954094;28;105647;-71
2024/03/27 09:45:43;;;;;;;7.57;4.30;;;;;;;14.47;51.81;95546.47;4959817;28;104284;-77
2024/03/27 09:48:10;;;;;;;10.32;4.47;;;;;;;13.98;53.34;95550.53;4971316;28;102966;-75
2024/03/27 09:50:36;;;;;;;10.95;4.50;;;;;;;14.72;51.65;95558.94;4973860;28;103450;-75
2024/03/27 09:53:06;;;;;;;14.23;4.40;;;;;;;14.42;51.82;95560.59;4966334;28;103767;-76
2024/03/27 09:55:33;;;;;;;13.75;4.70;;;;;;;14.35;51.57;95564.59;4985649;28;102853;-76
2024/03/27 09:58:03;;;;;;;10.88;4.82;;;;;;;14.89;50.68;95573.81;4956277;28;103985;-72
2024/03/27 10:00:29;;;;;;;7.07;4.53;;;;;;;15.51;47.67;95562.81;4952774;27;111595;-71
2024/03/27 10:03:01;;;;;;;9.27;4.50;;;;;;;14.83;49.76;95564.22;4974921;28;103220;-73
2024/03/27 10:05:27;;;;;;;9.32;4.40;;;;;;;15.00;49.01;95571.88;4965320;28;102711;-72
2024/03/27 10:07:56;;;;;;;7.00;4.13;;;;;;;14.86;50.05;95569.03;4970965;28;103379;-72
2024/03/27 10:10:22;;;;;;;13.77;5.20;;;;;;;15.04;49.44;95554.28;4967957;28;105503;-71
2024/03/27 10:12:49;;;;;;;9.35;4.72;;;;;;;14.50;49.87;95569.09;4965564;28;103678;-71
2024/03/27 10:15:15;;;;;;;11.35;5.53;;;;;;;14.14;51.35;95579.81;4954495;28;104018;-71
2024/03/27 10:17:40;;;;;;;8.50;4.60;;;;;;;14.71;50.79;95578.66;4971649;28;102882;-73
2024/03/27 10:20:10;;;;;;;9.10;4.70;;;;;;;15.39;50.27;95582.66;4958080;28;104331;-75
2024/03/27 10:22:37;;;;;;;10.13;5.15;;;;;;;14.83;51.04;95574.88;4966029;28;106611;-76
2024/03/27 10:25:04;;;;;;;13.07;4.45;;;;;;;15.41;51.34;95580.47;4956068;28;102754;-74
2024/03/27 10:27:35;;;;;;;9.73;4.40;;;;;;;14.97;52.04;95575.09;4991717;27;102737;-72
2024/03/27 10:30:02;;;;;;;7.43;3.97;;;;;;;14.33;54.40;95567.53;4957528;28;105845;-73
2024/03/27 10:32:28;;;;;;;11.15;4.05;;;;;;;14.53;53.04;95581.88;4972054;28;103300;-73
2024/03/27 10:34:55;;;;;;;10.23;4.30;;;;;;;14.28;54.38;95586.19;4967806;28;102982;-71
2024/03/27 10:37:21;;;;;;;6.03;3.53;;;;;;;14.91;52.08;95593.00;4951739;28;106400;-71
2024/03/27 10:39:48;;;;;;;9.13;3.70;;;;;;;14.85;52.48;95605.50;4948870;28;102817;-71
2024/03/27 10:42:27;;;;;;;8.13;3.53;;;;;;;15.18;51.43;95597.13;4953288;28;103863;-71
2024/03/27 10:45:03;;;;;;;7.55;3.42;;;;;;;15.38;51.61;95606.91;4977835;28;103000;-71
2024/03/27 10:47:32;;;;;;;7.70;3.38;;;;;;;15.31;52.25;95614.41;4957268;28;103345;-71
2024/03/27 10:49:59;;;;;;;8.30;3.90;;;;;;;14.24;54.73;95614.38;4959424;28;103484;-71
2024/03/27 10:52:26;;;;;;;8.85;3.95;;;;;;;13.73;56.47;95610.63;4946551;28;108028;-71
2024/03/27 10:54:56;;;;;;;10.25;3.42;;;;;;;14.38;55.36;95615.47;4959261;28;103100;-70
2024/03/27 10:57:22;;;;;;;7.25;3.47;;;;;;;14.15;55.04;95631.94;4966695;28;102948;-72
2024/03/27 10:59:50;;;;;;;8.85;3.90;;;;;;;13.96;56.22;95635.13;4955629;28;103515;-73
2024/03/27 11:02:18;;;;;;;5.65;3.50;;;;;;;14.25;55.57;95640.75;4964336;28;103414;-73
2024/03/27 11:05:01;;;;;;;7.43;3.42;;;;;;;15.17;53.49;95636.34;4956368;27;102771;-71
2024/03/27 11:07:38;;;;;;;7.03;3.95;;;;;;;14.68;54.71;95605.03;4967335;28;102764;-73
2024/03/27 11:10:04;;;;;;;8.50;3.70;;;;;;;13.66;57.91;95623.38;4953982;28;103303;-72
2024/03/27 11:12:32;;;;;;;10.88;3.70;;;;;;;14.20;56.63;95642.59;4970500;28;103628;-71
2024/03/27 11:15:07;;;;;;;8.98;3.83;;;;;;;13.75;58.64;95669.72;4968805;28;102807;-71
2024/03/27 11:17:35;;;;;;;11.93;3.73;;;;;;;13.67;59.28;95669.41;4948460;28;102819;-71
2024/03/27 11:20:05;;;;;;;7.07;3.53;;;;;;;13.13;59.02;95673.97;4949046;28;104303;-73
2024/03/27 11:22:42;;;;;;;9.07;4.00;;;;;;;12.91;60.08;95674.13;4975238;28;103172;-71
2024/03/27 11:25:10;;;;;;;7.25;4.07;;;;;;;12.33;61.97;95698.69;4963215;28;103200;-76